Time;durP1;ratioP1;P1;durP2;ratioP2;P2;SDS_P1;SDS_P2;PMS_P1;PMS_P2;Temp;Humidity;BMP_temperature;BMP_pressure;BME280_temperature;BME280_humidity;BME280_pressure;Samples;Min_cycle;Max_cycle;Signal;HPM_P1;HPM_P2
2022/07/02 00:00:54;;;;;;;5.85;3.38;;;;;;;;;;5064585;28;20028;-73
2022/07/02 00:03:36;;;;;;;6.30;3.67;;;;;;;;;;5060923;28;20024;-71
2022/07/02 00:06:04;;;;;;;7.90;3.45;;;;;;;;;;5051026;28;20037;-70
2022/07/02 00:08:31;;;;;;;6.53;3.72;;;;;;;;;;5051583;28;20021;-74
2022/07/02 00:11:01;;;;;;;5.60;3.40;;;;;;;;;;5058701;28;20032;-75
2022/07/02 00:13:27;;;;;;;5.25;3.50;;;;;;;;;;5071502;28;20031;-71
2022/07/02 00:15:54;;;;;;;8.98;3.75;;;;;;;;;;5071710;28;20036;-74
2022/07/02 00:18:21;;;;;;;7.85;3.75;;;;;;;;;;5070870;28;20037;-74
2022/07/02 00:20:48;;;;;;;7.80;3.70;;;;;;;;;;5070539;28;20210;-71
2022/07/02 00:23:14;;;;;;;10.52;3.88;;;;;;;;;;5070534;28;20475;-75
2022/07/02 00:26:04;;;;;;;8.40;3.58;;;;;;;;;;5070705;28;20038;-73
2022/07/02 00:28:36;;;;;;;11.05;3.40;;;;;;;;;;5062380;28;20048;-70
2022/07/02 00:31:02;;;;;;;6.30;3.50;;;;;;;;;;5067763;28;20040;-73
2022/07/02 00:33:30;;;;;;;8.57;3.45;;;;;;;;;;5069108;28;20074;-70
2022/07/02 00:35:57;;;;;;;9.43;3.60;;;;;;;;;;5069780;28;20044;-69
2022/07/02 00:38:23;;;;;;;5.78;4.00;;;;;;;;;;5071156;28;20447;-71
2022/07/02 00:40:50;;;;;;;6.75;3.83;;;;;;;;;;5070918;28;20071;-69
2022/07/02 00:43:18;;;;;;;5.80;4.13;;;;;;;;;;5071081;28;20028;-70
2022/07/02 00:45:43;;;;;;;6.63;3.97;;;;;;;;;;5071065;28;20481;-70
2022/07/02 00:48:11;;;;;;;7.03;4.50;;;;;;;;;;5071296;28;20043;-72
2022/07/02 00:50:37;;;;;;;5.43;4.20;;;;;;;;;;5070762;28;20024;-71
2022/07/02 00:53:03;;;;;;;6.82;4.00;;;;;;;;;;5062709;28;20039;-69
2022/07/02 00:55:29;;;;;;;6.78;4.20;;;;;;;;;;5050902;28;20124;-71
2022/07/02 00:57:56;;;;;;;10.43;4.65;;;;;;;;;;5051092;28;20021;-71
2022/07/02 01:00:22;;;;;;;5.65;3.97;;;;;;;;;;5049976;28;20067;-70
2022/07/02 01:02:49;;;;;;;6.07;4.07;;;;;;;;;;5050825;28;20057;-70
2022/07/02 01:05:19;;;;;;;8.98;4.35;;;;;;;;;;5050585;28;20041;-73
2022/07/02 01:10:48;;;;;;;8.65;4.53;;;;;;;;;;5050277;28;20666;-72
2022/07/02 01:13:15;;;;;;;7.35;4.32;;;;;;;;;;5051603;28;20083;-68
2022/07/02 01:15:41;;;;;;;9.20;4.55;;;;;;;;;;5050346;28;20029;-74
2022/07/02 01:18:07;;;;;;;8.07;4.38;;;;;;;;;;5051271;28;20036;-68
2022/07/02 01:20:33;;;;;;;10.32;5.03;;;;;;;;;;5050379;28;20031;-70
2022/07/02 01:23:00;;;;;;;7.95;5.07;;;;;;;;;;5050951;28;20127;-71
2022/07/02 01:25:26;;;;;;;8.40;5.18;;;;;;;;;;5050618;28;20045;-72
2022/07/02 01:27:52;;;;;;;12.00;5.28;;;;;;;;;;5050987;28;20115;-70
2022/07/02 01:30:19;;;;;;;9.38;5.22;;;;;;;;;;5050140;28;20112;-72
2022/07/02 01:32:45;;;;;;;9.15;4.90;;;;;;;;;;5050868;28;20029;-72
2022/07/02 01:35:11;;;;;;;7.38;5.03;;;;;;;;;;5050359;28;20028;-70
2022/07/02 01:37:39;;;;;;;7.10;4.57;;;;;;;;;;5051013;28;20088;-69
2022/07/02 01:40:06;;;;;;;6.70;4.82;;;;;;;;;;5050135;28;20029;-74
2022/07/02 01:42:32;;;;;;;7.53;4.45;;;;;;;;;;5051024;28;20373;-71
2022/07/02 01:44:57;;;;;;;6.88;4.28;;;;;;;;;;5049873;28;20478;-70
2022/07/02 01:47:23;;;;;;;7.20;4.68;;;;;;;;;;5050934;28;20084;-71
2022/07/02 01:49:49;;;;;;;6.72;4.93;;;;;;;;;;5049928;28;20074;-69
2022/07/02 01:52:16;;;;;;;7.18;4.45;;;;;;;;;;5050654;28;20488;-68
2022/07/02 01:54:43;;;;;;;8.02;4.78;;;;;;;;;;5050045;28;20482;-72
2022/07/02 01:57:09;;;;;;;9.25;5.40;;;;;;;;;;5050832;28;20033;-72
2022/07/02 01:59:34;;;;;;;10.30;5.63;;;;;;;;;;5049777;28;20474;-67
2022/07/02 02:02:04;;;;;;;11.05;5.95;;;;;;;;;;5050576;28;20037;-69
2022/07/02 02:04:30;;;;;;;10.63;6.00;;;;;;;;;;5049761;28;20107;-69
2022/07/02 02:06:56;;;;;;;9.27;4.72;;;;;;;;;;5050973;28;20041;-71
2022/07/02 02:09:22;;;;;;;10.13;5.20;;;;;;;;;;5049882;28;20078;-69
2022/07/02 02:11:48;;;;;;;7.70;4.60;;;;;;;;;;5053430;28;20033;-70
2022/07/02 02:14:14;;;;;;;8.95;5.18;;;;;;;;;;5053423;28;20035;-70
2022/07/02 02:16:40;;;;;;;13.70;5.97;;;;;;;;;;5053867;28;20033;-70
2022/07/02 02:19:06;;;;;;;13.52;5.93;;;;;;;;;;5053591;28;20033;-69
2022/07/02 02:21:32;;;;;;;10.85;6.45;;;;;;;;;;5054196;28;20045;-68
2022/07/02 02:23:59;;;;;;;10.48;5.90;;;;;;;;;;5053507;28;20044;-69
2022/07/02 02:26:26;;;;;;;6.47;5.15;;;;;;;;;;5053891;28;20639;-69
2022/07/02 02:28:52;;;;;;;9.05;5.50;;;;;;;;;;5053192;28;20095;-72
2022/07/02 02:31:18;;;;;;;8.80;5.63;;;;;;;;;;5053312;28;20056;-71
2022/07/02 02:33:44;;;;;;;10.80;6.47;;;;;;;;;;5052918;28;20498;-69
2022/07/02 02:36:10;;;;;;;9.60;6.03;;;;;;;;;;5052990;28;20060;-69
2022/07/02 02:38:36;;;;;;;9.48;5.97;;;;;;;;;;5053122;28;20024;-70
2022/07/02 02:41:06;;;;;;;11.10;7.10;;;;;;;;;;5052703;28;20029;-69
2022/07/02 02:43:34;;;;;;;7.95;5.55;;;;;;;;;;5052914;28;20029;-70
2022/07/02 02:46:00;;;;;;;11.13;6.00;;;;;;;;;;5052523;28;20066;-70
2022/07/02 02:48:27;;;;;;;9.88;4.78;;;;;;;;;;5052870;28;20041;-70
2022/07/02 02:50:53;;;;;;;10.23;5.63;;;;;;;;;;5052665;28;20071;-70
2022/07/02 02:53:18;;;;;;;7.80;5.43;;;;;;;;;;5051832;28;20057;-69
2022/07/02 02:55:44;;;;;;;8.90;5.45;;;;;;;;;;5052644;28;20147;-71
2022/07/02 02:58:10;;;;;;;9.02;5.50;;;;;;;;;;5052838;28;20116;-71
2022/07/02 03:00:36;;;;;;;7.78;5.38;;;;;;;;;;5052377;28;20029;-70
2022/07/02 03:03:02;;;;;;;5.40;4.20;;;;;;;;;;5052883;28;20483;-70
2022/07/02 03:05:27;;;;;;;7.28;4.88;;;;;;;;;;5052435;28;20033;-69
2022/07/02 03:07:53;;;;;;;7.97;4.63;;;;;;;;;;5053911;28;20048;-72
2022/07/02 03:10:19;;;;;;;7.65;4.75;;;;;;;;;;5052677;28;20027;-72
2022/07/02 03:12:45;;;;;;;10.70;5.30;;;;;;;;;;5052642;28;20033;-70
2022/07/02 03:15:11;;;;;;;11.50;5.22;;;;;;;;;;5052096;28;20104;-69
2022/07/02 03:17:37;;;;;;;7.82;5.10;;;;;;;;;;5052590;28;20379;-70
2022/07/02 03:20:03;;;;;;;10.23;5.22;;;;;;;;;;5052200;28;20029;-72
2022/07/02 03:22:29;;;;;;;10.35;5.22;;;;;;;;;;5051873;28;20041;-75
2022/07/02 03:24:55;;;;;;;11.05;5.55;;;;;;;;;;5052066;28;20051;-73
2022/07/02 03:27:21;;;;;;;9.70;5.50;;;;;;;;;;5052696;28;20483;-73
2022/07/02 03:29:46;;;;;;;8.70;5.00;;;;;;;;;;5052001;28;20091;-70
2022/07/02 03:32:12;;;;;;;9.32;5.50;;;;;;;;;;5051969;28;20037;-74
2022/07/02 03:34:38;;;;;;;12.32;5.82;;;;;;;;;;5051719;28;20086;-70
2022/07/02 03:37:04;;;;;;;7.53;4.68;;;;;;;;;;5051536;28;20059;-71
2022/07/02 03:39:30;;;;;;;12.70;5.60;;;;;;;;;;5051742;28;20021;-70
2022/07/02 03:41:56;;;;;;;9.80;4.75;;;;;;;;;;5051885;28;20094;-69
2022/07/02 03:44:21;;;;;;;13.57;4.70;;;;;;;;;;5052254;28;20033;-70
2022/07/02 03:46:47;;;;;;;9.73;4.55;;;;;;;;;;5052299;28;20029;-69
2022/07/02 03:49:13;;;;;;;10.20;5.20;;;;;;;;;;5052123;28;20436;-70
2022/07/02 03:51:39;;;;;;;10.25;4.95;;;;;;;;;;5052202;28;20480;-70
2022/07/02 03:54:05;;;;;;;10.40;4.95;;;;;;;;;;5052487;28;20021;-70
2022/07/02 03:56:31;;;;;;;8.00;4.50;;;;;;;;;;5052360;28;20419;-70
2022/07/02 03:58:56;;;;;;;6.80;4.28;;;;;;;;;;5051938;28;20070;-69
2022/07/02 04:01:22;;;;;;;8.90;4.22;;;;;;;;;;5051751;28;20037;-69
2022/07/02 04:03:48;;;;;;;9.07;4.30;;;;;;;;;;5052205;28;20025;-70
2022/07/02 04:06:14;;;;;;;14.68;5.03;;;;;;;;;;5052599;28;20040;-70
2022/07/02 04:08:40;;;;;;;9.73;4.45;;;;;;;;;;5052242;28;20560;-69
2022/07/02 04:11:05;;;;;;;6.72;3.75;;;;;;;;;;5052566;28;20431;-71
2022/07/02 04:13:31;;;;;;;12.00;4.90;;;;;;;;;;5052254;28;20104;-70
2022/07/02 04:15:57;;;;;;;9.57;4.57;;;;;;;;;;5052402;28;20059;-70
2022/07/02 04:18:24;;;;;;;14.70;5.90;;;;;;;;;;5052685;28;20017;-70
2022/07/02 04:20:50;;;;;;;10.73;7.05;;;;;;;;;;5051908;28;20083;-69
2022/07/02 04:23:16;;;;;;;12.43;7.18;;;;;;;;;;5050851;28;20053;-71
2022/07/02 04:25:41;;;;;;;7.30;5.95;;;;;;;;;;5056846;28;20501;-71
2022/07/02 04:28:08;;;;;;;10.02;4.80;;;;;;;;;;5067086;28;20124;-69
2022/07/02 04:30:34;;;;;;;11.30;4.93;;;;;;;;;;5052095;28;20072;-69
2022/07/02 04:33:00;;;;;;;9.20;4.20;;;;;;;;;;5052574;28;20048;-68
2022/07/02 04:35:25;;;;;;;7.00;4.80;;;;;;;;;;5052908;28;20029;-69
2022/07/02 04:37:51;;;;;;;9.25;4.45;;;;;;;;;;5052708;28;20024;-70
2022/07/02 04:40:17;;;;;;;10.45;5.13;;;;;;;;;;5052470;28;20098;-70
2022/07/02 04:42:43;;;;;;;8.88;4.53;;;;;;;;;;5053100;28;20472;-69
2022/07/02 04:45:09;;;;;;;11.15;4.95;;;;;;;;;;5052810;28;20033;-68
2022/07/02 04:47:34;;;;;;;7.97;4.38;;;;;;;;;;5052896;28;20086;-68
2022/07/02 04:50:00;;;;;;;7.55;4.22;;;;;;;;;;5052600;28;20033;-70
2022/07/02 04:52:26;;;;;;;7.35;4.18;;;;;;;;;;5062119;28;20071;-70
2022/07/02 04:54:52;;;;;;;11.68;5.30;;;;;;;;;;5073093;28;20494;-72
2022/07/02 04:57:18;;;;;;;7.10;4.03;;;;;;;;;;5072955;28;20039;-70
2022/07/02 04:59:44;;;;;;;12.65;4.05;;;;;;;;;;5072927;28;20507;-70
2022/07/02 05:02:13;;;;;;;13.13;5.07;;;;;;;;;;5074088;28;20111;-74
2022/07/02 05:04:39;;;;;;;11.95;5.38;;;;;;;;;;5072699;28;20032;-73
2022/07/02 05:07:05;;;;;;;12.02;5.65;;;;;;;;;;5072687;28;20032;-73
2022/07/02 05:09:31;;;;;;;7.40;4.60;;;;;;;;;;5054068;28;20029;-71
2022/07/02 05:11:57;;;;;;;13.70;5.90;;;;;;;;;;5052411;28;20027;-70
2022/07/02 05:14:23;;;;;;;7.75;4.95;;;;;;;;;;5052645;28;20436;-69
2022/07/02 05:16:49;;;;;;;11.07;5.95;;;;;;;;;;5052628;28;20118;-72
2022/07/02 05:19:15;;;;;;;8.25;5.32;;;;;;;;;;5052651;28;20104;-67
2022/07/02 05:21:42;;;;;;;12.93;5.60;;;;;;;;;;5052218;28;20037;-70
2022/07/02 05:24:08;;;;;;;8.15;5.97;;;;;;;;;;5057752;28;20038;-73
2022/07/02 05:26:34;;;;;;;11.93;5.45;;;;;;;;;;5072401;28;20032;-68
2022/07/02 05:28:59;;;;;;;10.48;4.75;;;;;;;;;;5071737;28;20041;-68
2022/07/02 05:31:25;;;;;;;13.40;4.93;;;;;;;;;;5071922;28;20025;-69
2022/07/02 05:33:51;;;;;;;10.38;4.70;;;;;;;;;;5071915;28;20029;-69
2022/07/02 05:36:17;;;;;;;10.85;4.32;;;;;;;;;;5071893;28;20029;-68
2022/07/02 05:38:43;;;;;;;6.57;4.10;;;;;;;;;;5071908;28;20041;-70
2022/07/02 05:41:08;;;;;;;9.55;4.70;;;;;;;;;;5071999;28;20543;-70
2022/07/02 05:43:34;;;;;;;9.50;4.10;;;;;;;;;;5071382;28;20029;-68
2022/07/02 05:46:00;;;;;;;8.35;3.70;;;;;;;;;;5073550;28;20383;-69
2022/07/02 05:48:27;;;;;;;7.93;3.42;;;;;;;;;;5075735;28;20377;-70
2022/07/02 05:50:53;;;;;;;7.47;3.47;;;;;;;;;;5075428;28;20066;-72
2022/07/02 05:53:19;;;;;;;8.00;3.50;;;;;;;;;;5074956;28;20479;-72
2022/07/02 05:55:44;;;;;;;7.97;3.55;;;;;;;;;;5074938;28;20734;-73
2022/07/02 05:58:12;;;;;;;10.82;4.38;;;;;;;;;;5075078;28;20036;-70
2022/07/02 06:00:38;;;;;;;7.95;3.60;;;;;;;;;;5075492;28;20032;-69
2022/07/02 06:03:04;;;;;;;6.72;3.33;;;;;;;;;;5075459;28;20070;-69
2022/07/02 06:08:15;;;;;;;5.78;3.20;;;;;;;;;;5074650;28;20028;-69
2022/07/02 06:10:40;;;;;;;9.07;3.88;;;;;;;;;;5075344;28;20379;-70
2022/07/02 06:13:06;;;;;;;6.82;3.33;;;;;;;;;;5075298;28;20052;-71
2022/07/02 06:15:32;;;;;;;6.70;3.88;;;;;;;;;;5075325;28;20027;-72
2022/07/02 06:18:00;;;;;;;7.30;3.47;;;;;;;;;;5075277;28;20047;-70
2022/07/02 06:20:26;;;;;;;5.32;3.53;;;;;;;;;;5074602;28;20025;-71
2022/07/02 06:22:52;;;;;;;6.88;3.42;;;;;;;;;;5075159;28;20033;-73
2022/07/02 06:25:17;;;;;;;10.52;3.42;;;;;;;;;;5074800;28;20028;-73
2022/07/02 06:27:43;;;;;;;6.93;3.25;;;;;;;;;;5074736;28;20074;-73
2022/07/02 06:30:09;;;;;;;6.13;3.08;;;;;;;;;;5074633;28;20020;-74
2022/07/02 06:32:36;;;;;;;7.93;3.95;;;;;;;;;;5074179;28;20043;-72
2022/07/02 06:35:03;;;;;;;10.65;3.38;;;;;;;;;;5074853;28;20037;-70
2022/07/02 06:37:28;;;;;;;6.78;3.25;;;;;;;;;;5074461;28;20103;-71
2022/07/02 06:39:54;;;;;;;11.02;3.00;;;;;;;;;;5074672;28;20158;-71
2022/07/02 06:42:22;;;;;;;6.32;3.08;;;;;;;;;;5074660;28;20457;-69
2022/07/02 06:44:51;;;;;;;5.78;2.83;;;;;;;;;;5073141;28;20104;-70
2022/07/02 06:47:18;;;;;;;5.30;3.25;;;;;;;;;;5073072;28;20391;-73
2022/07/02 06:49:44;;;;;;;6.68;2.78;;;;;;;;;;5074190;28;20470;-72
2022/07/02 06:52:11;;;;;;;9.35;2.80;;;;;;;;;;5076821;28;20029;-68
2022/07/02 06:54:38;;;;;;;7.82;3.25;;;;;;;;;;5072345;28;20467;-72
2022/07/02 06:57:04;;;;;;;7.18;2.67;;;;;;;;;;5072706;28;20025;-75
2022/07/02 06:59:31;;;;;;;7.45;2.53;;;;;;;;;;5062312;28;20032;-75
2022/07/02 07:01:57;;;;;;;9.38;2.92;;;;;;;;;;5065098;28;20035;-75
2022/07/02 07:04:23;;;;;;;3.72;2.45;;;;;;;;;;5058751;28;20025;-75
2022/07/02 07:06:52;;;;;;;6.15;3.15;;;;;;;;;;5052964;28;20132;-75
2022/07/02 07:09:18;;;;;;;6.28;2.80;;;;;;;;;;5054094;28;20025;-73
2022/07/02 07:11:45;;;;;;;8.00;2.42;;;;;;;;;;5066181;28;20391;-73
2022/07/02 07:14:10;;;;;;;6.30;2.47;;;;;;;;;;5074041;28;20502;-74
2022/07/02 07:16:36;;;;;;;4.55;2.53;;;;;;;;;;5074068;28;20033;-77
2022/07/02 07:21:28;;;;;;;9.02;2.92;;;;;;;;;;5073616;28;20052;-74
2022/07/02 07:23:54;;;;;;;5.40;2.55;;;;;;;;;;5073473;28;20374;-74
2022/07/02 07:26:20;;;;;;;5.72;2.45;;;;;;;;;;5073281;28;20052;-75
2022/07/02 07:28:46;;;;;;;6.68;2.58;;;;;;;;;;5073794;28;20013;-75
2022/07/02 07:31:12;;;;;;;4.63;2.53;;;;;;;;;;5073763;28;20086;-74
2022/07/02 07:33:37;;;;;;;4.53;2.75;;;;;;;;;;5073694;28;20035;-74
2022/07/02 07:36:04;;;;;;;7.20;2.63;;;;;;;;;;5072784;28;20503;-75
2022/07/02 07:38:30;;;;;;;9.05;2.92;;;;;;;;;;5071469;28;20032;-75
2022/07/02 07:40:56;;;;;;;6.80;2.60;;;;;;;;;;5072734;28;20577;-75
2022/07/02 07:43:21;;;;;;;6.07;3.20;;;;;;;;;;5073681;28;20636;-74
2022/07/02 07:45:47;;;;;;;8.20;2.95;;;;;;;;;;5073237;28;20033;-75
2022/07/02 07:48:14;;;;;;;8.45;2.92;;;;;;;;;;5073063;28;20135;-75
2022/07/02 07:50:40;;;;;;;6.90;3.35;;;;;;;;;;5072614;28;20032;-75
2022/07/02 07:53:06;;;;;;;5.93;2.70;;;;;;;;;;5073577;28;20078;-75
2022/07/02 07:55:32;;;;;;;9.02;5.03;;;;;;;;;;5073107;28;20032;-76
2022/07/02 07:57:58;;;;;;;10.13;3.13;;;;;;;;;;5073208;28;20028;-74
2022/07/02 08:00:24;;;;;;;6.65;3.30;;;;;;;;;;5073100;28;20475;-75
2022/07/02 08:02:50;;;;;;;4.00;2.78;;;;;;;;;;5072442;28;20030;-74
2022/07/02 08:05:16;;;;;;;6.32;2.88;;;;;;;;;;5072905;28;20090;-75
2022/07/02 08:07:41;;;;;;;7.40;2.97;;;;;;;;;;5072962;28;20398;-77
2022/07/02 08:10:13;;;;;;;7.32;2.67;;;;;;;;;;5071530;28;20033;-74
2022/07/02 08:12:42;;;;;;;5.10;2.60;;;;;;;;;;5067907;28;20415;-76
2022/07/02 08:15:09;;;;;;;3.85;2.38;;;;;;;;;;5064026;28;20032;-74
2022/07/02 08:17:36;;;;;;;6.72;2.72;;;;;;;;;;5072342;28;20025;-75
2022/07/02 08:20:05;;;;;;;5.20;2.38;;;;;;;;;;5072490;28;20037;-75
2022/07/02 08:22:35;;;;;;;13.00;3.10;;;;;;;;;;5072531;28;20127;-74
2022/07/02 08:25:02;;;;;;;9.60;3.15;;;;;;;;;;5073050;28;20033;-72
2022/07/02 08:27:28;;;;;;;8.45;3.28;;;;;;;;;;5072170;28;20044;-75
2022/07/02 08:29:54;;;;;;;6.80;2.53;;;;;;;;;;5072389;28;20094;-76
2022/07/02 08:32:20;;;;;;;6.97;2.80;;;;;;;;;;5072514;28;20020;-75
2022/07/02 08:34:46;;;;;;;4.03;2.92;;;;;;;;;;5072585;28;20036;-74
2022/07/02 08:37:12;;;;;;;5.38;3.00;;;;;;;;;;5071314;28;20016;-74
2022/07/02 08:39:38;;;;;;;6.25;2.90;;;;;;;;;;5072087;28;20040;-75
2022/07/02 08:42:06;;;;;;;6.47;2.97;;;;;;;;;;5072298;28;20031;-75
2022/07/02 08:44:33;;;;;;;4.22;2.53;;;;;;;;;;5072273;28;20430;-74
2022/07/02 08:47:07;;;;;;;5.55;2.85;;;;;;;;;;5072126;28;20078;-74
2022/07/02 08:49:33;;;;;;;6.82;3.03;;;;;;;;;;5072113;28;20024;-74
2022/07/02 08:52:04;;;;;;;6.53;3.00;;;;;;;;;;5071483;28;20032;-72
2022/07/02 08:54:34;;;;;;;7.43;2.88;;;;;;;;;;5065272;28;20552;-75
2022/07/02 08:57:03;;;;;;;8.75;3.60;;;;;;;;;;5072502;28;20067;-74
2022/07/02 08:59:32;;;;;;;8.15;3.08;;;;;;;;;;5072242;28;20044;-74
2022/07/02 09:02:00;;;;;;;5.38;3.10;;;;;;;;;;5072399;28;20044;-76
2022/07/02 09:04:26;;;;;;;6.28;3.13;;;;;;;;;;5072407;28;20052;-77
2022/07/02 09:06:57;;;;;;;8.57;3.30;;;;;;;;;;5071411;28;20033;-74
2022/07/02 09:09:26;;;;;;;8.82;3.42;;;;;;;;;;5071705;28;20028;-76
2022/07/02 09:11:53;;;;;;;6.90;2.83;;;;;;;;;;5072037;28;20040;-76
2022/07/02 09:14:20;;;;;;;6.05;3.00;;;;;;;;;;5062849;28;20037;-74
2022/07/02 09:16:47;;;;;;;5.93;3.30;;;;;;;;;;5052237;28;20025;-73
2022/07/02 09:19:14;;;;;;;6.70;2.92;;;;;;;;;;5068283;28;20043;-74
2022/07/02 09:21:51;;;;;;;5.65;2.92;;;;;;;;;;5070173;28;20088;-72
2022/07/02 09:24:46;;;;;;;5.95;3.28;;;;;;;;;;5054396;28;20525;-73
2022/07/02 09:27:14;;;;;;;5.22;2.85;;;;;;;;;;5058863;28;20090;-75
2022/07/02 09:29:45;;;;;;;4.95;2.90;;;;;;;;;;5074224;28;20479;-75
2022/07/02 09:32:13;;;;;;;5.75;3.08;;;;;;;;;;5073918;28;20040;-75
2022/07/02 09:34:44;;;;;;;8.30;3.22;;;;;;;;;;5074784;28;20044;-74
2022/07/02 09:37:21;;;;;;;6.78;3.10;;;;;;;;;;5075718;28;20367;-76
2022/07/02 09:39:49;;;;;;;4.63;3.10;;;;;;;;;;5075281;28;20039;-76
2022/07/02 09:42:30;;;;;;;7.43;4.55;;;;;;;;;;5074283;28;20024;-76
2022/07/02 09:44:57;;;;;;;4.85;2.78;;;;;;;;;;5074947;28;20063;-74
2022/07/02 09:47:37;;;;;;;9.82;5.95;;;;;;;;;;5075726;28;20043;-74
2022/07/02 09:50:09;;;;;;;8.07;4.80;;;;;;;;;;5075478;28;20041;-73
2022/07/02 09:52:36;;;;;;;9.23;3.50;;;;;;;;;;5075407;28;20040;-74
2022/07/02 09:55:03;;;;;;;5.50;3.20;;;;;;;;;;5073541;28;20098;-73
2022/07/02 09:57:29;;;;;;;5.45;3.17;;;;;;;;;;5074654;28;20471;-76
2022/07/02 10:00:06;;;;;;;8.30;3.67;;;;;;;;;;5075712;28;20055;-74
2022/07/02 10:02:36;;;;;;;7.22;3.20;;;;;;;;;;5075831;28;20102;-74
2022/07/02 10:05:05;;;;;;;6.85;3.25;;;;;;;;;;5075496;28;20025;-72
2022/07/02 10:07:31;;;;;;;5.80;3.85;;;;;;;;;;5075179;28;20082;-75
2022/07/02 10:10:02;;;;;;;5.18;3.10;;;;;;;;;;5075445;28;20029;-74
2022/07/02 10:12:28;;;;;;;6.93;3.00;;;;;;;;;;5075668;28;20111;-75
2022/07/02 10:14:56;;;;;;;8.90;4.97;;;;;;;;;;5075532;28;20435;-74
2022/07/02 10:17:24;;;;;;;8.55;4.72;;;;;;;;;;5075533;28;20029;-73
2022/07/02 10:19:51;;;;;;;6.32;3.10;;;;;;;;;;5075447;28;20097;-75
2022/07/02 10:22:18;;;;;;;6.10;3.78;;;;;;;;;;5075270;28;20044;-72
2022/07/02 10:24:46;;;;;;;7.43;3.90;;;;;;;;;;5075302;28;20037;-75
2022/07/02 10:27:12;;;;;;;6.15;3.50;;;;;;;;;;5075352;28;20123;-75
2022/07/02 10:29:38;;;;;;;6.30;3.45;;;;;;;;;;5074939;28;20107;-73
2022/07/02 10:32:23;;;;;;;10.73;3.88;;;;;;;;;;5074257;28;20028;-77
2022/07/02 10:34:52;;;;;;;6.07;3.75;;;;;;;;;;5074820;28;20051;-75
2022/07/02 10:37:18;;;;;;;7.90;3.30;;;;;;;;;;5074979;28;20042;-72
2022/07/02 10:39:44;;;;;;;9.70;3.72;;;;;;;;;;5075157;28;20179;-74
2022/07/02 10:42:10;;;;;;;8.02;3.70;;;;;;;;;;5075200;28;20048;-74
2022/07/02 10:44:39;;;;;;;7.50;3.58;;;;;;;;;;5074840;28;20390;-75
2022/07/02 10:47:16;;;;;;;8.10;3.55;;;;;;;;;;5075092;28;20024;-76
2022/07/02 10:49:42;;;;;;;5.07;3.42;;;;;;;;;;5075009;28;20035;-72
2022/07/02 10:52:08;;;;;;;8.65;3.40;;;;;;;;;;5073527;28;20487;-72
2022/07/02 10:54:34;;;;;;;12.77;3.80;;;;;;;;;;5071887;28;20037;-73
2022/07/02 10:57:00;;;;;;;5.20;4.10;;;;;;;;;;5073755;28;20020;-74
2022/07/02 10:59:38;;;;;;;4.70;3.58;;;;;;;;;;5074507;28;20056;-75
2022/07/02 11:02:12;;;;;;;8.88;3.92;;;;;;;;;;5074350;28;20097;-71
2022/07/02 11:04:40;;;;;;;5.65;3.80;;;;;;;;;;5073953;28;20429;-73
2022/07/02 11:07:11;;;;;;;8.07;3.72;;;;;;;;;;5074145;28;20028;-74
2022/07/02 11:09:55;;;;;;;6.47;3.38;;;;;;;;;;5073440;28;20036;-76
2022/07/02 11:12:43;;;;;;;6.63;3.90;;;;;;;;;;5073949;28;20107;-72
2022/07/02 11:15:17;;;;;;;5.68;3.83;;;;;;;;;;5074004;28;20040;-73
2022/07/02 11:17:48;;;;;;;8.55;4.13;;;;;;;;;;5074319;28;20104;-75
2022/07/02 11:20:16;;;;;;;9.63;6.40;;;;;;;;;;5073849;28;20108;-75
2022/07/02 11:22:42;;;;;;;8.93;3.90;;;;;;;;;;5073011;28;20094;-73
2022/07/02 11:25:08;;;;;;;6.90;4.10;;;;;;;;;;5072452;28;20506;-71
2022/07/02 11:27:34;;;;;;;6.72;3.95;;;;;;;;;;5074334;28;20016;-73
2022/07/02 11:30:01;;;;;;;6.00;3.97;;;;;;;;;;5073726;28;20111;-73
2022/07/02 11:32:37;;;;;;;6.75;3.97;;;;;;;;;;5073522;28;20410;-74
2022/07/02 11:35:03;;;;;;;5.68;4.15;;;;;;;;;;5073164;28;20043;-72
2022/07/02 11:37:29;;;;;;;8.02;4.25;;;;;;;;;;5073429;28;20029;-74
2022/07/02 11:39:55;;;;;;;9.30;4.20;;;;;;;;;;5073342;28;20029;-76
2022/07/02 11:42:36;;;;;;;7.75;4.05;;;;;;;;;;5073240;28;20036;-75
2022/07/02 11:45:02;;;;;;;7.18;4.20;;;;;;;;;;5072800;28;20493;-74
2022/07/02 11:47:28;;;;;;;8.98;4.30;;;;;;;;;;5072774;28;20361;-76
2022/07/02 11:49:54;;;;;;;6.82;4.47;;;;;;;;;;5073306;28;20039;-74
2022/07/02 11:52:19;;;;;;;8.20;4.80;;;;;;;;;;5073326;28;20036;-76
2022/07/02 11:54:45;;;;;;;9.23;4.55;;;;;;;;;;5072990;28;20604;-75
2022/07/02 11:57:11;;;;;;;6.35;4.38;;;;;;;;;;5072887;28;20028;-74
2022/07/02 11:59:37;;;;;;;9.98;4.03;;;;;;;;;;5072886;28;20076;-74
2022/07/02 12:02:03;;;;;;;8.15;5.03;;;;;;;;;;5072230;28;20037;-75
2022/07/02 12:04:29;;;;;;;8.80;4.60;;;;;;;;;;5072603;28;20021;-73
2022/07/02 12:06:57;;;;;;;6.72;4.57;;;;;;;;;;5072748;28;20382;-74
2022/07/02 12:09:25;;;;;;;17.08;6.75;;;;;;;;;;5072642;28;20091;-76
2022/07/02 12:11:51;;;;;;;10.65;4.70;;;;;;;;;;5072676;28;20049;-74
2022/07/02 12:14:24;;;;;;;6.82;3.95;;;;;;;;;;5072534;28;20043;-76
2022/07/02 12:16:52;;;;;;;6.53;4.40;;;;;;;;;;5072854;28;20035;-73
2022/07/02 12:19:18;;;;;;;7.30;5.25;;;;;;;;;;5072941;28;20021;-75
2022/07/02 12:21:46;;;;;;;9.57;4.35;;;;;;;;;;5072676;28;20048;-77
2022/07/02 12:24:27;;;;;;;6.32;4.25;;;;;;;;;;5071626;28;20052;-74
2022/07/02 12:26:55;;;;;;;7.00;4.13;;;;;;;;;;5073689;28;20040;-70
2022/07/02 12:32:12;;;;;;;12.95;4.28;;;;;;;;;;5072810;28;20036;-76
2022/07/02 12:34:48;;;;;;;5.93;4.00;;;;;;;;;;5072780;28;20055;-75
2022/07/02 12:37:27;;;;;;;5.82;4.10;;;;;;;;;;5072496;28;20032;-74
2022/07/02 12:39:57;;;;;;;5.82;4.13;;;;;;;;;;5071918;28;20036;-74
2022/07/02 12:42:23;;;;;;;6.25;4.50;;;;;;;;;;5072596;28;20038;-76
2022/07/02 12:44:55;;;;;;;6.15;4.70;;;;;;;;;;5072716;28;20024;-73
2022/07/02 12:47:35;;;;;;;6.97;4.00;;;;;;;;;;5072854;28;20449;-70
2022/07/02 12:50:05;;;;;;;10.70;4.53;;;;;;;;;;5072602;28;20029;-71
2022/07/02 12:52:43;;;;;;;8.55;4.35;;;;;;;;;;5072173;28;20060;-73
2022/07/02 12:55:30;;;;;;;9.07;4.45;;;;;;;;;;5070414;28;20127;-75
2022/07/02 12:57:59;;;;;;;8.15;5.05;;;;;;;;;;5072695;28;20082;-71
2022/07/02 13:00:25;;;;;;;5.47;4.03;;;;;;;;;;5072319;28;20025;-73
2022/07/02 13:02:58;;;;;;;6.90;4.13;;;;;;;;;;5072069;28;20053;-73
2022/07/02 13:05:24;;;;;;;;;;;;;;;;;;5073217;28;20123;-72
2022/07/02 13:07:50;;;;;;;9.88;4.28;;;;;;;;;;5071946;28;20010;-73
2022/07/02 13:10:16;;;;;;;6.43;4.13;;;;;;;;;;5072431;28;20119;-76
2022/07/02 13:12:41;;;;;;;5.10;3.65;;;;;;;;;;5072497;28;20079;-75
2022/07/02 13:15:08;;;;;;;6.22;3.90;;;;;;;;;;5072079;28;20396;-72
2022/07/02 13:17:34;;;;;;;6.28;4.18;;;;;;;;;;5071741;28;20472;-73
2022/07/02 13:19:59;;;;;;;14.18;11.10;;;;;;;;;;5072213;28;20032;-75
2022/07/02 13:22:26;;;;;;;5.10;3.88;;;;;;;;;;5071994;28;20048;-74
2022/07/02 13:24:53;;;;;;;5.00;3.90;;;;;;;;;;5072044;28;20064;-76
2022/07/02 13:27:19;;;;;;;4.43;3.63;;;;;;;;;;5071880;28;20028;-72
2022/07/02 13:29:45;;;;;;;5.78;3.92;;;;;;;;;;5070224;28;20032;-77
2022/07/02 13:32:11;;;;;;;7.07;4.00;;;;;;;;;;5072106;28;20375;-76
2022/07/02 13:34:37;;;;;;;8.90;3.75;;;;;;;;;;5072245;28;20036;-74
2022/07/02 13:37:03;;;;;;;4.32;3.50;;;;;;;;;;5072003;28;20552;-72
2022/07/02 13:39:30;;;;;;;6.07;3.60;;;;;;;;;;5071817;28;20122;-72
2022/07/02 13:42:00;;;;;;;7.18;3.58;;;;;;;;;;5071353;28;20024;-73
2022/07/02 13:44:33;;;;;;;7.72;4.13;;;;;;;;;;5071825;28;20433;-71
2022/07/02 13:46:59;;;;;;;7.00;3.92;;;;;;;;;;5071764;28;20036;-76
2022/07/02 13:49:25;;;;;;;4.30;3.63;;;;;;;;;;5071704;28;20023;-76
2022/07/02 13:51:51;;;;;;;5.25;3.58;;;;;;;;;;5071868;28;20036;-74
2022/07/02 13:54:17;;;;;;;8.98;3.97;;;;;;;;;;5071302;28;20063;-77
2022/07/02 13:56:43;;;;;;;5.68;3.38;;;;;;;;;;5071786;28;20025;-73
2022/07/02 13:59:09;;;;;;;5.47;3.85;;;;;;;;;;5071752;28;20475;-75
2022/07/02 14:01:35;;;;;;;7.22;3.80;;;;;;;;;;5072096;28;20024;-74
2022/07/02 14:04:01;;;;;;;5.55;3.65;;;;;;;;;;5071821;28;20056;-75
2022/07/02 14:06:28;;;;;;;7.25;3.60;;;;;;;;;;5072642;28;20036;-75
2022/07/02 14:08:53;;;;;;;5.95;3.65;;;;;;;;;;5074997;28;20471;-75
2022/07/02 14:11:20;;;;;;;6.22;3.65;;;;;;;;;;5075477;28;20086;-74
2022/07/02 14:13:46;;;;;;;7.75;3.83;;;;;;;;;;5075383;28;20032;-72
2022/07/02 14:16:12;;;;;;;5.00;3.38;;;;;;;;;;5076748;28;20036;-72
2022/07/02 14:18:37;;;;;;;8.20;3.60;;;;;;;;;;5082177;28;20024;-74
2022/07/02 14:21:04;;;;;;;4.60;3.78;;;;;;;;;;5078779;28;20044;-75
2022/07/02 14:23:31;;;;;;;7.75;3.92;;;;;;;;;;5075292;28;20502;-75
2022/07/02 14:25:58;;;;;;;6.55;4.20;;;;;;;;;;5075240;28;20073;-74
2022/07/02 14:28:23;;;;;;;5.50;3.42;;;;;;;;;;5075247;28;20086;-75
2022/07/02 14:30:50;;;;;;;4.28;3.88;;;;;;;;;;5075016;28;20028;-71
2022/07/02 14:33:17;;;;;;;7.22;3.78;;;;;;;;;;5075033;28;20399;-75
2022/07/02 14:35:46;;;;;;;5.68;3.53;;;;;;;;;;5074973;28;20037;-73
2022/07/02 14:38:13;;;;;;;4.35;3.55;;;;;;;;;;5074926;28;20498;-73
2022/07/02 14:40:39;;;;;;;6.13;3.88;;;;;;;;;;5074690;28;20476;-73
2022/07/02 14:43:05;;;;;;;6.75;3.60;;;;;;;;;;5074013;28;20052;-72
2022/07/02 14:45:31;;;;;;;5.07;3.47;;;;;;;;;;5073416;28;20060;-73
2022/07/02 14:47:56;;;;;;;8.93;3.83;;;;;;;;;;5073930;28;20416;-73
2022/07/02 14:50:22;;;;;;;5.78;3.50;;;;;;;;;;5074250;28;20032;-73
2022/07/02 14:52:48;;;;;;;6.93;3.40;;;;;;;;;;5075071;28;20032;-74